Time;durP1;ratioP1;P1;durP2;ratioP2;P2;SDS_P1;SDS_P2;PMS_P1;PMS_P2;Temp;Humidity;BMP_temperature;BMP_pressure;BME280_temperature;BME280_humidity;BME280_pressure;Samples;Min_cycle;Max_cycle;Signal;HPM_P1;HPM_P2
2023/05/17 00:01:23;;;;;;;1.55;1.02;;;;;;;;;;5063588;28;20071;-63
2023/05/17 00:03:55;;;;;;;0.80;0.40;;;;;;;;;;5061306;28;20053;-68
2023/05/17 00:06:23;;;;;;;0.90;0.90;;;;;;;;;;5061193;28;20135;-69
2023/05/17 00:08:52;;;;;;;0.70;0.40;;;;;;;;;;5063168;28;20504;-66
2023/05/17 00:11:22;;;;;;;3.80;0.95;;;;;;;;;;5059577;28;20048;-66
2023/05/17 00:13:50;;;;;;;1.60;0.82;;;;;;;;;;5061395;28;20053;-67
2023/05/17 00:16:18;;;;;;;0.52;0.52;;;;;;;;;;5059458;28;20070;-64
2023/05/17 00:18:47;;;;;;;0.60;0.52;;;;;;;;;;5060253;28;20467;-62
2023/05/17 00:21:15;;;;;;;1.92;0.93;;;;;;;;;;5058388;28;20048;-63
2023/05/17 00:23:44;;;;;;;1.88;0.93;;;;;;;;;;5060153;28;20060;-63
2023/05/17 00:26:12;;;;;;;6.05;0.82;;;;;;;;;;5057710;28;20048;-64
2023/05/17 00:28:42;;;;;;;1.00;0.82;;;;;;;;;;5060628;28;20082;-70
2023/05/17 00:31:10;;;;;;;1.60;0.70;;;;;;;;;;5061947;28;20057;-64
2023/05/17 00:33:39;;;;;;;2.03;0.80;;;;;;;;;;5059596;28;20056;-63
2023/05/17 00:36:07;;;;;;;0.57;0.57;;;;;;;;;;5058302;28;20040;-71
2023/05/17 00:38:35;;;;;;;0.30;0.30;;;;;;;;;;5057665;28;20110;-64
2023/05/17 00:41:04;;;;;;;0.40;0.40;;;;;;;;;;5061629;28;20079;-63
2023/05/17 00:43:32;;;;;;;0.50;0.40;;;;;;;;;;5058317;28;20507;-65
2023/05/17 00:46:02;;;;;;;0.60;0.50;;;;;;;;;;5059206;28;20434;-63
2023/05/17 00:48:30;;;;;;;1.15;1.08;;;;;;;;;;5061646;28;20571;-64
2023/05/17 00:51:00;;;;;;;0.80;0.60;;;;;;;;;;5060670;28;20461;-63
2023/05/17 00:53:28;;;;;;;1.65;0.50;;;;;;;;;;5060121;28;20106;-65
2023/05/17 00:55:56;;;;;;;0.73;0.50;;;;;;;;;;5059275;28;20052;-63
2023/05/17 00:58:25;;;;;;;0.93;0.65;;;;;;;;;;5060388;28;20060;-68
2023/05/17 01:00:53;;;;;;;0.82;0.30;;;;;;;;;;5059292;28;20072;-66
2023/05/17 01:03:23;;;;;;;7.43;1.27;;;;;;;;;;5080253;22;20137;-67
2023/05/17 01:05:51;;;;;;;0.38;0.38;;;;;;;;;;5073952;28;20051;-61
2023/05/17 01:08:20;;;;;;;0.68;0.68;;;;;;;;;;5073110;28;20040;-61
2023/05/17 01:10:53;;;;;;;1.20;0.63;;;;;;;;;;5073197;28;20467;-63
2023/05/17 01:13:25;;;;;;;0.50;0.50;;;;;;;;;;5072943;28;20080;-63
2023/05/17 01:15:57;;;;;;;1.35;0.73;;;;;;;;;;5072671;28;20044;-61
2023/05/17 01:18:32;;;;;;;0.40;0.40;;;;;;;;;;5072637;28;20501;-63
2023/05/17 01:21:02;;;;;;;0.68;0.68;;;;;;;;;;5072584;28;20040;-63
2023/05/17 01:23:40;;;;;;;0.32;0.32;;;;;;;;;;5073463;28;20048;-64
2023/05/17 01:26:12;;;;;;;0.30;0.30;;;;;;;;;;5073121;28;20110;-62
2023/05/17 01:28:42;;;;;;;0.70;0.70;;;;;;;;;;5073818;28;20041;-62
2023/05/17 01:31:11;;;;;;;0.38;0.38;;;;;;;;;;5073422;28;20094;-61
2023/05/17 01:33:40;;;;;;;0.47;0.43;;;;;;;;;;5059794;28;20159;-63
2023/05/17 01:36:09;;;;;;;1.33;0.70;;;;;;;;;;5060914;28;20139;-61
2023/05/17 01:38:37;;;;;;;0.50;0.50;;;;;;;;;;5057227;28;20141;-67
2023/05/17 01:41:08;;;;;;;0.63;0.40;;;;;;;;;;5063210;28;20079;-67
2023/05/17 01:43:40;;;;;;;0.52;0.50;;;;;;;;;;5058715;28;21076;-62
2023/05/17 01:46:13;;;;;;;0.50;0.50;;;;;;;;;;5061447;28;20106;-62
2023/05/17 01:48:53;;;;;;;0.60;0.47;;;;;;;;;;5056999;28;20634;-61
2023/05/17 01:51:24;;;;;;;2.50;1.00;;;;;;;;;;5059205;28;20051;-62
2023/05/17 01:53:56;;;;;;;0.82;0.68;;;;;;;;;;5059977;28;20531;-62
2023/05/17 01:56:28;;;;;;;2.10;0.60;;;;;;;;;;5061889;28;20072;-62
2023/05/17 01:58:59;;;;;;;;;;;;;;;;;;5062264;28;20048;-63
2023/05/17 02:01:29;;;;;;;0.90;0.70;;;;;;;;;;5060355;28;19993;-64
2023/05/17 02:03:58;;;;;;;0.52;0.30;;;;;;;;;;5062205;28;20655;-62
2023/05/17 02:06:26;;;;;;;2.22;0.80;;;;;;;;;;5065840;28;20047;-63
2023/05/17 02:08:54;;;;;;;0.95;0.38;;;;;;;;;;5060524;28;20191;-61
2023/05/17 02:11:23;;;;;;;1.40;0.70;;;;;;;;;;5061977;28;20048;-63
2023/05/17 02:13:51;;;;;;;0.50;0.50;;;;;;;;;;5061703;28;20044;-62
2023/05/17 02:16:20;;;;;;;0.52;0.43;;;;;;;;;;5060263;28;20456;-62
2023/05/17 02:18:50;;;;;;;1.63;0.77;;;;;;;;;;5060292;28;20135;-67
2023/05/17 02:21:18;;;;;;;0.30;0.30;;;;;;;;;;5061269;28;20238;-61
2023/05/17 02:23:47;;;;;;;0.52;0.50;;;;;;;;;;5060650;28;20041;-64
2023/05/17 02:26:15;;;;;;;0.75;0.60;;;;;;;;;;5059856;28;20125;-65
2023/05/17 02:28:44;;;;;;;0.75;0.75;;;;;;;;;;5061387;28;20072;-67
2023/05/17 02:31:12;;;;;;;0.95;0.65;;;;;;;;;;5062637;28;20041;-61
2023/05/17 02:33:41;;;;;;;3.40;0.85;;;;;;;;;;5059057;28;20097;-67
2023/05/17 02:36:11;;;;;;;0.98;0.73;;;;;;;;;;5059762;28;20080;-64
2023/05/17 02:38:39;;;;;;;2.30;0.45;;;;;;;;;;5061287;28;20060;-66
2023/05/17 02:41:07;;;;;;;0.45;0.45;;;;;;;;;;5059861;28;20171;-62
2023/05/17 02:43:36;;;;;;;6.20;0.82;;;;;;;;;;5060310;28;20394;-61
2023/05/17 02:46:04;;;;;;;2.05;0.68;;;;;;;;;;5061787;28;20069;-63
2023/05/17 02:48:33;;;;;;;0.50;0.50;;;;;;;;;;5059899;28;20481;-61
2023/05/17 02:51:01;;;;;;;0.30;0.30;;;;;;;;;;5062326;28;20040;-61
2023/05/17 02:53:31;;;;;;;1.08;0.47;;;;;;;;;;5063910;28;20704;-67
2023/05/17 02:55:59;;;;;;;1.27;0.65;;;;;;;;;;5064473;28;20561;-63
2023/05/17 02:58:28;;;;;;;0.82;0.43;;;;;;;;;;5062541;28;20048;-61
2023/05/17 03:00:56;;;;;;;0.65;0.43;;;;;;;;;;5059816;28;20459;-64
2023/05/17 03:03:24;;;;;;;0.98;0.60;;;;;;;;;;5061371;28;20072;-63
2023/05/17 03:05:53;;;;;;;2.85;1.00;;;;;;;;;;5057114;28;20459;-61
2023/05/17 03:08:21;;;;;;;1.27;0.65;;;;;;;;;;5058059;28;20103;-62
2023/05/17 03:10:51;;;;;;;0.52;0.52;;;;;;;;;;5055242;28;20442;-63
2023/05/17 03:13:19;;;;;;;1.15;0.70;;;;;;;;;;5059447;28;20055;-66
2023/05/17 03:15:48;;;;;;;1.55;0.60;;;;;;;;;;5058993;28;20044;-63
2023/05/17 03:18:16;;;;;;;0.52;0.40;;;;;;;;;;5059048;28;20524;-61
2023/05/17 03:20:45;;;;;;;2.28;0.80;;;;;;;;;;5056111;28;20048;-63
2023/05/17 03:23:14;;;;;;;7.53;1.30;;;;;;;;;;5061993;28;20036;-61
2023/05/17 03:25:42;;;;;;;0.73;0.40;;;;;;;;;;5066107;28;20040;-68
2023/05/17 03:28:12;;;;;;;0.98;0.73;;;;;;;;;;5064873;28;20048;-63
2023/05/17 03:30:40;;;;;;;7.32;0.82;;;;;;;;;;5062380;28;20401;-61
2023/05/17 03:33:09;;;;;;;0.77;0.73;;;;;;;;;;5065140;28;20078;-62
2023/05/17 03:35:37;;;;;;;0.73;0.52;;;;;;;;;;5060686;28;20067;-62
2023/05/17 03:38:06;;;;;;;0.30;0.30;;;;;;;;;;5065242;28;20102;-62
2023/05/17 03:40:34;;;;;;;0.50;0.50;;;;;;;;;;5062782;28;20461;-61
2023/05/17 03:43:03;;;;;;;0.65;0.45;;;;;;;;;;5065815;28;20117;-63
2023/05/17 03:45:33;;;;;;;0.40;0.40;;;;;;;;;;5063639;28;20048;-62
2023/05/17 03:48:01;;;;;;;0.68;0.50;;;;;;;;;;5066603;28;20123;-63
2023/05/17 03:50:30;;;;;;;3.85;0.40;;;;;;;;;;5063639;28;20055;-63
2023/05/17 03:53:00;;;;;;;2.63;0.68;;;;;;;;;;5066482;28;20794;-62
2023/05/17 03:55:28;;;;;;;9.65;0.65;;;;;;;;;;5061195;28;20055;-63
2023/05/17 03:57:57;;;;;;;0.70;0.70;;;;;;;;;;5067343;28;20117;-66
2023/05/17 04:00:25;;;;;;;1.33;0.25;;;;;;;;;;5065247;28;20052;-61
2023/05/17 04:02:55;;;;;;;1.17;1.00;;;;;;;;;;5064110;28;20079;-62
2023/05/17 04:05:23;;;;;;;4.97;0.52;;;;;;;;;;5063824;28;20054;-63
2023/05/17 04:07:52;;;;;;;0.50;0.50;;;;;;;;;;5059152;28;20048;-61
2023/05/17 04:10:21;;;;;;;0.90;0.68;;;;;;;;;;5063203;28;20375;-62
2023/05/17 04:12:49;;;;;;;0.98;0.77;;;;;;;;;;5064069;28;20121;-64
2023/05/17 04:15:18;;;;;;;0.60;0.55;;;;;;;;;;5062659;28;20164;-61
2023/05/17 04:17:46;;;;;;;0.20;0.20;;;;;;;;;;5061352;28;20173;-61
2023/05/17 04:20:16;;;;;;;1.38;0.40;;;;;;;;;;5060540;28;20044;-62
2023/05/17 04:22:44;;;;;;;0.20;0.15;;;;;;;;;;5062349;28;20080;-64
2023/05/17 04:25:12;;;;;;;1.17;0.55;;;;;;;;;;5064544;28;20095;-62
2023/05/17 04:27:41;;;;;;;2.30;0.43;;;;;;;;;;5063553;28;20072;-62
2023/05/17 04:30:10;;;;;;;3.63;0.50;;;;;;;;;;5063094;28;20070;-62
2023/05/17 04:32:39;;;;;;;0.45;0.45;;;;;;;;;;5058217;28;20098;-63
2023/05/17 04:35:08;;;;;;;0.32;0.30;;;;;;;;;;5058095;28;20543;-64
2023/05/17 04:37:39;;;;;;;1.10;0.57;;;;;;;;;;5062871;28;20489;-61
2023/05/17 04:40:08;;;;;;;2.90;0.65;;;;;;;;;;5056910;28;20075;-61
2023/05/17 04:42:37;;;;;;;1.13;0.47;;;;;;;;;;5061650;28;20048;-61
2023/05/17 04:45:06;;;;;;;0.30;0.30;;;;;;;;;;5060852;28;20564;-62
2023/05/17 04:47:34;;;;;;;0.50;0.50;;;;;;;;;;5063096;28;20464;-64
2023/05/17 04:50:03;;;;;;;1.00;0.50;;;;;;;;;;5062498;28;20044;-62
2023/05/17 04:52:32;;;;;;;0.38;0.38;;;;;;;;;;5058222;28;20044;-62
2023/05/17 04:55:02;;;;;;;0.85;0.50;;;;;;;;;;5064603;28;20069;-61
2023/05/17 04:57:30;;;;;;;0.30;0.30;;;;;;;;;;5063376;28;20074;-61
2023/05/17 04:59:58;;;;;;;0.32;0.30;;;;;;;;;;5063957;28;20617;-63
2023/05/17 05:02:27;;;;;;;0.63;0.63;;;;;;;;;;5060338;28;20048;-66
2023/05/17 05:04:55;;;;;;;0.47;0.47;;;;;;;;;;5059144;28;20139;-61
2023/05/17 05:07:24;;;;;;;0.20;0.20;;;;;;;;;;5061975;28;20055;-62
2023/05/17 05:09:52;;;;;;;0.30;0.30;;;;;;;;;;5060850;28;20386;-65
2023/05/17 05:12:22;;;;;;;0.30;0.30;;;;;;;;;;5064535;28;20125;-65
2023/05/17 05:14:51;;;;;;;0.30;0.30;;;;;;;;;;5063130;28;20048;-61
2023/05/17 05:17:20;;;;;;;3.25;0.60;;;;;;;;;;5062497;28;20084;-62
2023/05/17 05:19:48;;;;;;;0.52;0.50;;;;;;;;;;5062804;28;20047;-65
2023/05/17 05:22:18;;;;;;;0.13;0.13;;;;;;;;;;5061500;28;20048;-62
2023/05/17 05:24:46;;;;;;;1.55;0.57;;;;;;;;;;5062948;28;20044;-64
2023/05/17 05:27:15;;;;;;;0.47;0.47;;;;;;;;;;5064706;28;20418;-60
2023/05/17 05:29:44;;;;;;;0.73;0.43;;;;;;;;;;5064080;28;20056;-62
2023/05/17 05:32:14;;;;;;;1.38;0.30;;;;;;;;;;5067001;28;20079;-67
2023/05/17 05:34:42;;;;;;;0.38;0.38;;;;;;;;;;5063428;28;20055;-63
2023/05/17 05:37:11;;;;;;;0.40;0.40;;;;;;;;;;5063369;28;20040;-62
2023/05/17 05:39:39;;;;;;;0.88;0.65;;;;;;;;;;5064566;28;20107;-62
2023/05/17 05:42:08;;;;;;;0.38;0.30;;;;;;;;;;5063813;28;20124;-61
2023/05/17 05:44:36;;;;;;;1.73;0.70;;;;;;;;;;5063649;28;20098;-60
2023/05/17 05:47:06;;;;;;;0.50;0.50;;;;;;;;;;5062421;28;20151;-64
2023/05/17 05:49:34;;;;;;;0.60;0.40;;;;;;;;;;5064047;28;20040;-67
2023/05/17 05:52:03;;;;;;;0.30;0.30;;;;;;;;;;5065716;28;20492;-60
2023/05/17 05:54:31;;;;;;;1.45;0.60;;;;;;;;;;5061343;28;20056;-63
2023/05/17 05:57:00;;;;;;;3.60;0.40;;;;;;;;;;5064620;28;20079;-59
2023/05/17 05:59:28;;;;;;;0.47;0.47;;;;;;;;;;5064635;28;20131;-61
2023/05/17 06:01:57;;;;;;;0.20;0.20;;;;;;;;;;5062035;28;20587;-59
2023/05/17 06:04:27;;;;;;;0.75;0.35;;;;;;;;;;5063195;28;20040;-59
2023/05/17 06:07:11;;;;;;;10.43;2.17;;;;;;;;;;5061470;28;20416;-60
2023/05/17 06:09:39;;;;;;;0.52;0.52;;;;;;;;;;5063364;28;21962;-63
2023/05/17 06:12:08;;;;;;;1.55;1.13;;;;;;;;;;5060451;28;20040;-62
2023/05/17 06:14:37;;;;;;;4.03;0.63;;;;;;;;;;5065407;28;20090;-62
2023/05/17 06:17:05;;;;;;;1.67;0.47;;;;;;;;;;5061136;28;20508;-63
2023/05/17 06:19:35;;;;;;;0.20;0.20;;;;;;;;;;5062868;28;20044;-59
2023/05/17 06:22:04;;;;;;;0.32;0.32;;;;;;;;;;5062137;28;20144;-59
2023/05/17 06:24:32;;;;;;;17.55;0.55;;;;;;;;;;5063025;28;20554;-62
2023/05/17 06:27:01;;;;;;;0.93;0.63;;;;;;;;;;5058790;28;20114;-64
2023/05/17 06:29:29;;;;;;;0.70;0.50;;;;;;;;;;5062542;28;20681;-62
2023/05/17 06:31:58;;;;;;;0.82;0.63;;;;;;;;;;5063780;28;20052;-59
2023/05/17 06:34:27;;;;;;;0.20;0.20;;;;;;;;;;5061427;28;20036;-61
2023/05/17 06:36:56;;;;;;;0.70;0.32;;;;;;;;;;5061923;28;20048;-66
2023/05/17 06:39:25;;;;;;;3.30;0.30;;;;;;;;;;5059357;28;20044;-60
2023/05/17 06:41:53;;;;;;;3.15;0.40;;;;;;;;;;5062558;28;20045;-60
2023/05/17 06:44:22;;;;;;;1.27;0.43;;;;;;;;;;5061101;28;20593;-59
2023/05/17 06:46:50;;;;;;;0.30;0.30;;;;;;;;;;5063564;28;20129;-61
2023/05/17 06:49:18;;;;;;;0.32;0.30;;;;;;;;;;5063185;28;20131;-60
2023/05/17 06:51:47;;;;;;;0.20;0.20;;;;;;;;;;5060654;28;20079;-60
2023/05/17 06:54:18;;;;;;;0.30;0.30;;;;;;;;;;5062701;28;20450;-59
2023/05/17 06:56:46;;;;;;;0.10;0.10;;;;;;;;;;5062526;28;20136;-60
2023/05/17 06:59:15;;;;;;;0.20;0.20;;;;;;;;;;5063758;28;20044;-58
2023/05/17 07:01:43;;;;;;;0.47;0.47;;;;;;;;;;5065343;28;20055;-58
2023/05/17 07:04:12;;;;;;;0.95;0.50;;;;;;;;;;5066570;28;20241;-63
2023/05/17 07:06:40;;;;;;;0.95;0.47;;;;;;;;;;5066550;28;20140;-58
2023/05/17 07:09:09;;;;;;;0.40;0.40;;;;;;;;;;5067055;28;20048;-58
2023/05/17 07:11:39;;;;;;;17.15;0.60;;;;;;;;;;5068637;28;20075;-59
2023/05/17 07:14:07;;;;;;;0.40;0.40;;;;;;;;;;5068610;28;20125;-59
2023/05/17 07:16:35;;;;;;;1.00;0.55;;;;;;;;;;5067037;28;21693;-60
2023/05/17 07:19:04;;;;;;;0.30;0.30;;;;;;;;;;5067042;28;20049;-58
2023/05/17 07:21:32;;;;;;;0.52;0.52;;;;;;;;;;5062893;28;20523;-59
2023/05/17 07:24:01;;;;;;;3.30;0.40;;;;;;;;;;5063993;28;20586;-59
2023/05/17 07:26:29;;;;;;;0.82;0.47;;;;;;;;;;5068764;28;20052;-61
2023/05/17 07:28:59;;;;;;;0.95;0.95;;;;;;;;;;5065572;28;20072;-61
2023/05/17 07:31:28;;;;;;;5.45;0.30;;;;;;;;;;5065464;28;20110;-58
2023/05/17 07:33:56;;;;;;;0.43;0.38;;;;;;;;;;5061784;28;20409;-59
2023/05/17 07:36:26;;;;;;;0.82;0.22;;;;;;;;;;5069953;28;20054;-59
2023/05/17 07:38:54;;;;;;;0.40;0.40;;;;;;;;;;5066981;28;20048;-64
2023/05/17 07:41:23;;;;;;;0.35;0.25;;;;;;;;;;5065240;28;21525;-62
2023/05/17 07:43:52;;;;;;;0.20;0.20;;;;;;;;;;5064892;28;20559;-58
2023/05/17 07:46:21;;;;;;;0.25;0.25;;;;;;;;;;5064177;28;20052;-62
2023/05/17 07:48:50;;;;;;;5.22;0.35;;;;;;;;;;5065657;28;20080;-58
2023/05/17 07:51:19;;;;;;;0.50;0.50;;;;;;;;;;5063473;28;20439;-64
2023/05/17 07:53:47;;;;;;;0.60;0.32;;;;;;;;;;5063963;28;20053;-62
2023/05/17 07:56:15;;;;;;;0.65;0.35;;;;;;;;;;5063403;28;20149;-59
2023/05/17 07:58:44;;;;;;;1.73;0.57;;;;;;;;;;5064812;28;20068;-60
2023/05/17 08:01:12;;;;;;;0.60;0.22;;;;;;;;;;5066174;28;20044;-59
2023/05/17 08:03:46;;;;;;;0.30;0.20;;;;;;;;;;5062968;28;20451;-60
2023/05/17 08:06:15;;;;;;;0.40;0.40;;;;;;;;;;5062189;28;20052;-60
2023/05/17 08:08:44;;;;;;;0.17;0.17;;;;;;;;;;5061988;28;20045;-60
2023/05/17 08:11:13;;;;;;;0.20;0.20;;;;;;;;;;5064801;28;20127;-59
2023/05/17 08:13:43;;;;;;;0.10;0.10;;;;;;;;;;5060957;28;20047;-59
2023/05/17 08:16:11;;;;;;;0.30;0.30;;;;;;;;;;5061815;28;20040;-62
2023/05/17 08:18:43;;;;;;;0.35;0.30;;;;;;;;;;5062065;28;20040;-62
2023/05/17 08:21:12;;;;;;;0.68;0.68;;;;;;;;;;5061842;28;20105;-58
2023/05/17 08:23:41;;;;;;;0.30;0.30;;;;;;;;;;5066388;28;20086;-59
2023/05/17 08:26:11;;;;;;;4.38;0.57;;;;;;;;;;5062489;28;20044;-61
2023/05/17 08:28:40;;;;;;;0.25;0.20;;;;;;;;;;5065359;28;20049;-61
2023/05/17 08:31:08;;;;;;;1.55;0.40;;;;;;;;;;5060465;28;20386;-61
2023/05/17 08:33:37;;;;;;;0.20;0.20;;;;;;;;;;5059444;28;20463;-60
2023/05/17 08:36:07;;;;;;;0.17;0.17;;;;;;;;;;5061912;28;20044;-59
2023/05/17 08:38:36;;;;;;;0.35;0.22;;;;;;;;;;5056588;28;20469;-59
2023/05/17 08:41:04;;;;;;;0.45;0.40;;;;;;;;;;5057896;28;20056;-64
2023/05/17 08:43:33;;;;;;;0.20;0.20;;;;;;;;;;5061007;28;20093;-63
2023/05/17 08:46:03;;;;;;;1.15;0.38;;;;;;;;;;5059521;28;20052;-60
2023/05/17 08:48:31;;;;;;;0.75;0.55;;;;;;;;;;5059477;28;20613;-61
2023/05/17 08:51:00;;;;;;;0.43;0.30;;;;;;;;;;5056946;28;20052;-61
2023/05/17 08:53:30;;;;;;;1.88;0.40;;;;;;;;;;5063364;28;20044;-59
2023/05/17 08:55:59;;;;;;;1.55;0.20;;;;;;;;;;5062551;28;20102;-62
2023/05/17 08:58:29;;;;;;;0.20;0.20;;;;;;;;;;5061104;28;20496;-63
2023/05/17 09:01:02;;;;;;;0.15;0.15;;;;;;;;;;5066898;28;20052;-58
2023/05/17 09:03:30;;;;;;;0.63;0.40;;;;;;;;;;5063221;28;20063;-63
2023/05/17 09:05:59;;;;;;;1.65;0.47;;;;;;;;;;5059132;28;20143;-62
2023/05/17 09:08:31;;;;;;;0.38;0.38;;;;;;;;;;5056603;28;20603;-61
2023/05/17 09:11:00;;;;;;;0.43;0.35;;;;;;;;;;5061406;28;20049;-62
2023/05/17 09:13:28;;;;;;;5.88;0.35;;;;;;;;;;5064989;28;20052;-59
2023/05/17 09:15:56;;;;;;;0.30;0.30;;;;;;;;;;5063361;28;20095;-61
2023/05/17 09:18:31;;;;;;;0.22;0.22;;;;;;;;;;5062979;28;20049;-68
2023/05/17 09:21:03;;;;;;;0.30;0.30;;;;;;;;;;5062339;28;20094;-62
2023/05/17 09:23:33;;;;;;;0.15;0.15;;;;;;;;;;5063218;28;20484;-59
2023/05/17 09:26:05;;;;;;;0.17;0.17;;;;;;;;;;5061908;28;20044;-64
2023/05/17 09:28:37;;;;;;;0.20;0.17;;;;;;;;;;5061635;28;20079;-60
2023/05/17 09:31:06;;;;;;;1.15;1.08;;;;;;;;;;5061186;28;20094;-64
2023/05/17 09:33:35;;;;;;;1.30;0.32;;;;;;;;;;5062167;28;20217;-61
2023/05/17 09:36:04;;;;;;;0.25;0.15;;;;;;;;;;5058929;28;20075;-59
2023/05/17 09:38:34;;;;;;;0.25;0.20;;;;;;;;;;5061799;28;20091;-60
2023/05/17 09:41:02;;;;;;;0.50;0.50;;;;;;;;;;5060351;28;20464;-60
2023/05/17 09:43:31;;;;;;;0.47;0.38;;;;;;;;;;5064544;28;20146;-61
2023/05/17 09:45:59;;;;;;;3.50;0.30;;;;;;;;;;5062238;28;20056;-60
2023/05/17 09:48:28;;;;;;;0.77;0.40;;;;;;;;;;5062544;28;20036;-67
2023/05/17 09:50:56;;;;;;;2.92;0.85;;;;;;;;;;5057550;28;20064;-60
2023/05/17 09:53:25;;;;;;;1.00;0.32;;;;;;;;;;5061841;28;20131;-61
2023/05/17 09:55:55;;;;;;;0.17;0.17;;;;;;;;;;5060773;28;20072;-61
2023/05/17 09:58:25;;;;;;;0.32;0.30;;;;;;;;;;5062035;28;20050;-64
2023/05/17 10:00:54;;;;;;;0.10;0.10;;;;;;;;;;5058775;28;20101;-62
2023/05/17 10:03:22;;;;;;;1.35;0.85;;;;;;;;;;5062613;28;20098;-67
2023/05/17 10:05:53;;;;;;;0.40;0.32;;;;;;;;;;5056491;28;20060;-62
2023/05/17 10:08:24;;;;;;;0.88;0.30;;;;;;;;;;5061873;28;20097;-58
2023/05/17 10:10:53;;;;;;;0.20;0.20;;;;;;;;;;5059598;28;20047;-59
2023/05/17 10:13:24;;;;;;;1.08;0.50;;;;;;;;;;5061846;28;20135;-59
2023/05/17 10:15:54;;;;;;;2.60;0.32;;;;;;;;;;5058980;28;20118;-68
2023/05/17 10:18:22;;;;;;;0.50;0.40;;;;;;;;;;5059017;28;20554;-59
2023/05/17 10:20:51;;;;;;;1.90;0.30;;;;;;;;;;5060303;28;20048;-69
2023/05/17 10:23:21;;;;;;;2.92;0.30;;;;;;;;;;5062072;28;20185;-59
2023/05/17 10:25:50;;;;;;;2.53;0.40;;;;;;;;;;5060850;28;20084;-63
2023/05/17 10:28:19;;;;;;;0.30;0.22;;;;;;;;;;5061661;28;20123;-62
2023/05/17 10:30:50;;;;;;;2.65;0.30;;;;;;;;;;5063251;28;20068;-59
2023/05/17 10:33:19;;;;;;;0.80;0.22;;;;;;;;;;5065905;28;20083;-64
2023/05/17 10:35:47;;;;;;;2.65;0.60;;;;;;;;;;5069645;28;20123;-59
2023/05/17 10:38:16;;;;;;;0.75;0.70;;;;;;;;;;5069981;28;20049;-58
2023/05/17 10:40:47;;;;;;;0.30;0.25;;;;;;;;;;5068442;28;20048;-60
2023/05/17 10:43:16;;;;;;;0.40;0.17;;;;;;;;;;5066622;28;20048;-60
2023/05/17 10:45:45;;;;;;;0.68;0.40;;;;;;;;;;5066372;28;20618;-60
2023/05/17 10:48:16;;;;;;;3.13;0.30;;;;;;;;;;5067632;28;20054;-59
2023/05/17 10:50:46;;;;;;;0.28;0.28;;;;;;;;;;5066892;28;20860;-61
2023/05/17 10:53:28;;;;;;;0.65;0.20;;;;;;;;;;5069324;28;20091;-62
2023/05/17 10:55:57;;;;;;;1.20;0.93;;;;;;;;;;5071473;28;20044;-60
2023/05/17 10:58:27;;;;;;;1.70;0.40;;;;;;;;;;5067826;28;20420;-60
2023/05/17 11:00:56;;;;;;;1.20;0.28;;;;;;;;;;5068717;28;20137;-59
2023/05/17 11:03:28;;;;;;;0.68;0.40;;;;;;;;;;5069066;28;20777;-64
2023/05/17 11:06:21;;;;;;;5.00;0.68;;;;;;;;;;5066386;28;20139;-72
2023/05/17 11:08:53;;;;;;;;;;;;;;;;;;5052918;28;20052;-61
2023/05/17 11:11:21;;;;;;;0.73;0.28;;;;;;;;;;5067660;28;19967;-59
2023/05/17 11:13:54;;;;;;;0.20;0.20;;;;;;;;;;5067846;28;20049;-61
2023/05/17 11:16:23;;;;;;;0.85;0.20;;;;;;;;;;5064874;28;20044;-60
2023/05/17 11:18:53;;;;;;;0.75;0.17;;;;;;;;;;5067214;28;20044;-62
2023/05/17 11:21:23;;;;;;;0.17;0.13;;;;;;;;;;5068313;28;20503;-63
2023/05/17 11:23:56;;;;;;;0.10;0.10;;;;;;;;;;5067167;28;20129;-61
2023/05/17 11:26:29;;;;;;;0.77;0.30;;;;;;;;;;5066839;28;20048;-59
2023/05/17 11:29:01;;;;;;;2.08;0.30;;;;;;;;;;5068036;28;20045;-61
2023/05/17 11:31:30;;;;;;;0.28;0.28;;;;;;;;;;5068017;28;20044;-61
2023/05/17 11:34:00;;;;;;;2.38;0.47;;;;;;;;;;5067131;28;20052;-61
2023/05/17 11:36:29;;;;;;;0.20;0.20;;;;;;;;;;5069307;28;20041;-59
2023/05/17 11:39:10;;;;;;;0.50;0.50;;;;;;;;;;5069202;28;20053;-61
2023/05/17 11:41:40;;;;;;;0.98;0.85;;;;;;;;;;5065730;28;20052;-59
2023/05/17 11:44:09;;;;;;;2.28;0.35;;;;;;;;;;5064829;28;20071;-71
2023/05/17 11:46:39;;;;;;;0.63;0.40;;;;;;;;;;5065967;28;20040;-58
2023/05/17 11:49:08;;;;;;;3.10;1.38;;;;;;;;;;5062292;28;20048;-59
2023/05/17 11:51:39;;;;;;;1.13;0.43;;;;;;;;;;5064081;28;20135;-61
2023/05/17 11:54:08;;;;;;;0.13;0.13;;;;;;;;;;5062929;28;20118;-59
2023/05/17 11:56:36;;;;;;;1.35;0.52;;;;;;;;;;5062986;28;20045;-59
2023/05/17 11:59:11;;;;;;;0.20;0.20;;;;;;;;;;5068080;28;20037;-63
2023/05/17 12:01:43;;;;;;;1.65;0.43;;;;;;;;;;5062701;28;20060;-61
2023/05/17 12:04:13;;;;;;;0.30;0.20;;;;;;;;;;5065317;28;20072;-66
2023/05/17 12:06:42;;;;;;;0.63;0.30;;;;;;;;;;5061630;28;20052;-59
2023/05/17 12:09:12;;;;;;;0.95;0.57;;;;;;;;;;5062342;28;20052;-58
2023/05/17 12:11:42;;;;;;;0.57;0.47;;;;;;;;;;5062673;28;20131;-58
2023/05/17 12:14:10;;;;;;;1.10;0.40;;;;;;;;;;5062101;28;20519;-61
2023/05/17 12:16:42;;;;;;;1.45;0.40;;;;;;;;;;5064105;28;20110;-58
2023/05/17 12:19:19;;;;;;;0.90;0.40;;;;;;;;;;5061995;28;20213;-59
2023/05/17 12:21:47;;;;;;;0.63;0.30;;;;;;;;;;5066717;28;20052;-58
2023/05/17 12:24:16;;;;;;;0.50;0.20;;;;;;;;;;5063485;28;20080;-64
2023/05/17 12:26:45;;;;;;;0.68;0.50;;;;;;;;;;5062161;28;20553;-59
2023/05/17 12:29:14;;;;;;;2.70;0.47;;;;;;;;;;5066502;28;20044;-70
2023/05/17 12:31:44;;;;;;;2.30;0.77;;;;;;;;;;5064138;28;20473;-58
2023/05/17 12:34:12;;;;;;;0.80;0.43;;;;;;;;;;5061766;28;20036;-58
2023/05/17 12:36:43;;;;;;;1.27;0.50;;;;;;;;;;5058436;28;20122;-65
2023/05/17 12:39:12;;;;;;;0.75;0.40;;;;;;;;;;5058690;28;20136;-66
2023/05/17 12:41:40;;;;;;;2.83;0.90;;;;;;;;;;5063809;28;20137;-62
2023/05/17 12:44:09;;;;;;;1.23;0.82;;;;;;;;;;5063192;28;20114;-59
2023/05/17 12:46:42;;;;;;;0.35;0.30;;;;;;;;;;5061083;28;20048;-59
2023/05/17 12:49:11;;;;;;;0.90;0.38;;;;;;;;;;5062484;28;20080;-68
2023/05/17 12:51:41;;;;;;;5.20;0.50;;;;;;;;;;5061776;28;20133;-60
2023/05/17 12:54:11;;;;;;;2.33;0.85;;;;;;;;;;5061054;28;20076;-63
2023/05/17 12:56:42;;;;;;;0.30;0.30;;;;;;;;;;5060671;28;20072;-65
2023/05/17 12:59:12;;;;;;;0.88;0.45;;;;;;;;;;5061254;28;20784;-64
2023/05/17 13:01:42;;;;;;;1.88;0.50;;;;;;;;;;5064063;28;20059;-59
2023/05/17 13:04:11;;;;;;;1.08;0.65;;;;;;;;;;5061586;28;20048;-60
2023/05/17 13:06:46;;;;;;;1.45;0.38;;;;;;;;;;5061526;28;20048;-64
2023/05/17 13:09:17;;;;;;;1.83;0.40;;;;;;;;;;5061673;28;20485;-59
2023/05/17 13:11:50;;;;;;;0.28;0.28;;;;;;;;;;5061208;28;20052;-63
2023/05/17 13:14:33;;;;;;;0.80;0.40;;;;;;;;;;5060303;28;20481;-62
2023/05/17 13:17:02;;;;;;;1.38;0.50;;;;;;;;;;5062718;28;20444;-60
2023/05/17 13:19:31;;;;;;;1.08;0.50;;;;;;;;;;5059631;28;20051;-62
2023/05/17 13:21:59;;;;;;;1.85;0.70;;;;;;;;;;5063187;28;20094;-71
2023/05/17 13:24:31;;;;;;;0.28;0.28;;;;;;;;;;5059602;28;20402;-63
2023/05/17 13:26:59;;;;;;;0.70;0.52;;;;;;;;;;5059485;28;20113;-72
2023/05/17 13:29:28;;;;;;;1.25;0.40;;;;;;;;;;5061220;28;20052;-64
2023/05/17 13:32:08;;;;;;;0.85;0.50;;;;;;;;;;5064220;28;20179;-60
2023/05/17 13:34:36;;;;;;;1.23;0.55;;;;;;;;;;5065197;28;20078;-61
2023/05/17 13:37:05;;;;;;;5.18;0.70;;;;;;;;;;5063378;28;20066;-60
2023/05/17 13:39:40;;;;;;;0.43;0.30;;;;;;;;;;5061859;28;20052;-63
2023/05/17 13:42:09;;;;;;;1.27;0.50;;;;;;;;;;5063854;28;20044;-60
2023/05/17 13:44:38;;;;;;;1.42;0.52;;;;;;;;;;5062211;28;20079;-63
2023/05/17 13:47:06;;;;;;;0.82;0.80;;;;;;;;;;5061084;28;20040;-66
2023/05/17 13:49:35;;;;;;;2.60;0.88;;;;;;;;;;5058104;28;20083;-61
2023/05/17 13:52:07;;;;;;;1.10;0.55;;;;;;;;;;5060321;28;20517;-60
2023/05/17 13:54:36;;;;;;;3.70;0.63;;;;;;;;;;5057351;28;20048;-68
2023/05/17 13:57:07;;;;;;;3.53;0.70;;;;;;;;;;5062030;28;20048;-60
2023/05/17 13:59:35;;;;;;;1.45;0.80;;;;;;;;;;5063556;28;20131;-60
2023/05/17 14:02:04;;;;;;;2.35;0.70;;;;;;;;;;5062476;28;20064;-60
2023/05/17 14:04:32;;;;;;;1.27;0.80;;;;;;;;;;5059620;28;20092;-71
2023/05/17 14:07:02;;;;;;;1.55;0.63;;;;;;;;;;5058827;28;20087;-65
2023/05/17 14:09:32;;;;;;;1.60;0.68;;;;;;;;;;5061023;28;20079;-59
2023/05/17 14:12:01;;;;;;;1.42;1.08;;;;;;;;;;5060777;28;20106;-61
2023/05/17 14:14:30;;;;;;;2.67;0.68;;;;;;;;;;5062014;28;20449;-61
2023/05/17 14:17:00;;;;;;;2.60;0.35;;;;;;;;;;5060494;28;20413;-65
2023/05/17 14:19:28;;;;;;;2.33;0.77;;;;;;;;;;5062872;28;20531;-63
2023/05/17 14:21:57;;;;;;;1.33;0.57;;;;;;;;;;5059246;28;20651;-62
2023/05/17 14:24:25;;;;;;;2.70;0.50;;;;;;;;;;5061650;28;20159;-61
2023/05/17 14:26:54;;;;;;;3.97;0.73;;;;;;;;;;5057455;28;20444;-63
2023/05/17 14:29:22;;;;;;;2.92;0.93;;;;;;;;;;5057381;28;20080;-62
2023/05/17 14:31:52;;;;;;;1.85;0.70;;;;;;;;;;5063756;28;20166;-63
2023/05/17 14:34:20;;;;;;;2.65;0.65;;;;;;;;;;5061503;28;20521;-61
2023/05/17 14:36:49;;;;;;;1.35;0.60;;;;;;;;;;5055840;28;20047;-64
2023/05/17 14:39:18;;;;;;;1.90;0.60;;;;;;;;;;5053343;28;20122;-61
2023/05/17 14:41:46;;;;;;;5.68;0.75;;;;;;;;;;5063188;28;20075;-61
2023/05/17 14:44:15;;;;;;;1.55;0.38;;;;;;;;;;5062317;28;20222;-60
2023/05/17 14:46:43;;;;;;;2.30;0.47;;;;;;;;;;5058658;28;20094;-66
2023/05/17 14:49:13;;;;;;;0.57;0.45;;;;;;;;;;5062112;28;20454;-65
2023/05/17 14:51:42;;;;;;;3.35;0.90;;;;;;;;;;5061521;28;20052;-66
2023/05/17 14:54:10;;;;;;;2.55;0.47;;;;;;;;;;5061942;28;20547;-63
2023/05/17 14:56:41;;;;;;;1.20;0.70;;;;;;;;;;5059033;28;20049;-63